Terminal Aerodrome Forecast
Issued by NWS

Home | Current Version | Previous Version | Graphics & Text | Print | Product List | Glossary On
Versions: 1 2 3 4 5 6 7 8 9 10 11 12 13 14 15
653
FTUS43 KFGF 242333
TAFBJI
TAF
KBJI 242333Z 2500/2524 13012KT P6SM SCT050
      TEMPO 2500/2502 BKN050
     FM250400 15007KT P6SM FEW200
     FM251400 14011KT P6SM BKN025
     FM251500 14012G20KT P6SM BKN040=

USA.gov is the U.S. government's official web portal to all federal, state and local government web resources and services.